createdAt,value
2022-08-20T00:01:10.033Z,100329.08
2022-08-20T00:06:17.783Z,100341.41
2022-08-20T00:11:25.155Z,100362.30
2022-08-20T00:16:32.920Z,100370.77
2022-08-20T00:21:36.622Z,100380.82
2022-08-20T00:26:51.868Z,100377.41
2022-08-20T00:31:55.778Z,100378.13
2022-08-20T00:36:59.534Z,100381.31
2022-08-20T00:42:03.752Z,100390.30
2022-08-20T00:47:06.537Z,100388.80
2022-08-20T00:52:15.999Z,100384.45
2022-08-20T00:57:58.871Z,100373.80
2022-08-20T01:02:57.730Z,100365.10
2022-08-20T01:08:00.455Z,100350.27
2022-08-20T01:13:11.056Z,100336.11
2022-08-20T01:18:18.281Z,100319.38
2022-08-20T01:23:40.184Z,100307.28
2022-08-20T01:29:02.944Z,100300.16
2022-08-20T01:34:09.099Z,100296.44
2022-08-20T01:39:21.690Z,100287.00
2022-08-20T01:44:25.447Z,100293.09
2022-08-20T01:49:30.755Z,100291.67
2022-08-20T01:54:33.970Z,100283.51
2022-08-20T01:59:37.120Z,100266.61
2022-08-20T02:04:40.440Z,100255.23
2022-08-20T02:09:43.844Z,100257.57
2022-08-20T02:14:51.440Z,100252.37
2022-08-20T02:20:16.365Z,100253.23
2022-08-20T02:25:23.117Z,100254.61
2022-08-20T02:30:33.216Z,100255.42
2022-08-20T02:35:36.269Z,100262.09
2022-08-20T02:40:39.109Z,100276.20
2022-08-20T02:45:44.234Z,100301.67
2022-08-20T02:51:01.813Z,100295.04
2022-08-20T02:56:06.268Z,100300.55
2022-08-20T03:01:12.644Z,100309.21
2022-08-20T03:06:16.259Z,100295.12
2022-08-20T03:11:20.664Z,100288.39
2022-08-20T03:16:23.479Z,100284.30
2022-08-20T03:21:26.733Z,100277.41
2022-08-20T03:26:29.554Z,100256.13
2022-08-20T03:31:32.858Z,100246.20
2022-08-20T03:36:35.643Z,100230.17
2022-08-20T03:41:39.322Z,100225.70
2022-08-20T03:46:42.074Z,100214.40
2022-08-20T03:51:58.292Z,100202.69
2022-08-20T03:57:02.939Z,100211.00
2022-08-20T04:02:08.101Z,100221.81
2022-08-20T04:07:17.327Z,100232.21
2022-08-20T04:12:20.112Z,100250.08
2022-08-20T04:17:24.680Z,100269.94
2022-08-20T04:22:27.428Z,100272.58
2022-08-20T04:27:32.638Z,100275.74
2022-08-20T04:32:37.052Z,100272.73
2022-08-20T04:37:41.866Z,100276.55
2022-08-20T04:42:45.096Z,100283.36
2022-08-20T04:47:49.811Z,100284.59
2022-08-20T04:52:52.561Z,100286.38
2022-08-20T04:57:56.278Z,100295.10
2022-08-20T05:02:59.279Z,100302.81
2022-08-20T05:08:02.296Z,100293.66
2022-08-20T05:13:06.820Z,100288.34
2022-08-20T05:18:09.631Z,100285.94
2022-08-20T05:23:13.531Z,100285.23
2022-08-20T05:28:25.732Z,100283.20
2022-08-20T05:33:30.143Z,100280.23
2022-08-20T05:38:35.019Z,100289.37
2022-08-20T05:43:37.899Z,100296.11
2022-08-20T05:48:40.841Z,100285.02
2022-08-20T05:53:43.929Z,100281.65
2022-08-20T05:58:46.711Z,100285.25
2022-08-20T06:04:08.474Z,100286.80
2022-08-20T06:09:11.431Z,100284.84
2022-08-20T06:14:16.711Z,100292.27
2022-08-20T06:19:24.977Z,100296.79
2022-08-20T06:24:29.072Z,100297.02
2022-08-20T06:29:35.315Z,100297.08
2022-08-20T06:34:38.251Z,100304.81
2022-08-20T06:39:53.871Z,100305.29
2022-08-20T06:44:56.699Z,100306.38
2022-08-20T06:49:59.742Z,100305.25
2022-08-20T06:55:02.520Z,100306.17
2022-08-20T07:00:14.383Z,100307.65
2022-08-20T07:05:17.261Z,100304.69
2022-08-20T07:10:20.729Z,100302.86
2022-08-20T07:15:25.936Z,100304.36
2022-08-20T07:20:29.854Z,100303.86
2022-08-20T07:25:33.792Z,100302.30
2022-08-20T07:30:56.830Z,100304.45
2022-08-20T07:36:03.557Z,100306.35
2022-08-20T07:41:13.591Z,100305.11
2022-08-20T07:46:20.618Z,100309.59
2022-08-20T07:51:23.660Z,100311.90
2022-08-20T07:56:28.085Z,100320.47
2022-08-20T08:01:31.765Z,100320.85
2022-08-20T08:06:34.487Z,100316.95
2022-08-20T08:11:47.300Z,100312.45
2022-08-20T08:16:50.640Z,100307.62
2022-08-20T08:21:53.480Z,100299.83
2022-08-20T08:26:56.236Z,100295.41
2022-08-20T08:32:01.190Z,100293.68
2022-08-20T08:37:05.499Z,100275.52
2022-08-20T08:42:26.021Z,100260.91
2022-08-20T08:47:35.952Z,100246.31
2022-08-20T08:52:40.771Z,100246.21
2022-08-20T08:57:43.537Z,100253.84
2022-08-20T09:03:07.398Z,100263.73
2022-08-20T09:08:16.727Z,100275.19
2022-08-20T09:13:19.932Z,100278.91
2022-08-20T09:18:22.656Z,100281.25
2022-08-20T09:23:25.434Z,100277.94
2022-08-20T09:28:32.471Z,100283.46
2022-08-20T09:33:37.825Z,100278.80
2022-08-20T09:38:40.550Z,100276.58
2022-08-20T09:43:43.241Z,100272.04
2022-08-20T09:48:46.750Z,100262.06
2022-08-20T09:53:49.617Z,100260.23
2022-08-20T09:58:54.362Z,100262.77
2022-08-20T10:03:57.714Z,100263.88
2022-08-20T10:09:03.455Z,100259.52
2022-08-20T10:14:09.601Z,100262.33
2022-08-20T10:19:12.392Z,100252.67
2022-08-20T10:24:15.145Z,100244.27
2022-08-20T10:29:17.912Z,100240.46
2022-08-20T10:34:20.694Z,100232.41
2022-08-20T10:39:23.445Z,100227.96
2022-08-20T10:44:26.212Z,100225.70
2022-08-20T10:49:34.439Z,100229.92
2022-08-20T10:54:37.311Z,100230.13
2022-08-20T10:59:41.821Z,100244.39
2022-08-20T11:04:44.905Z,100243.98
2022-08-20T11:09:48.745Z,100232.67
2022-08-20T11:14:51.971Z,100228.85
2022-08-20T11:19:55.038Z,100230.86
2022-08-20T11:24:57.810Z,100224.52
2022-08-20T11:30:00.628Z,100223.55
2022-08-20T11:35:24.382Z,100216.64
2022-08-20T11:40:27.704Z,100228.27
2022-08-20T11:45:30.569Z,100225.06
2022-08-20T11:50:40.192Z,100227.52
2022-08-20T11:55:43.888Z,100227.43
2022-08-20T12:00:46.580Z,100224.79
2022-08-20T12:05:49.324Z,100225.45
2022-08-20T12:10:52.045Z,100223.26
2022-08-20T12:15:54.992Z,100212.45
2022-08-20T12:20:58.112Z,100210.78
2022-08-20T12:26:03.274Z,100216.66
2022-08-20T12:31:06.581Z,100210.84
2022-08-20T12:36:09.317Z,100204.30
2022-08-20T12:41:12.043Z,100201.58
2022-08-20T12:46:14.936Z,100197.80
2022-08-20T12:51:17.776Z,100196.16
2022-08-20T12:56:20.445Z,100195.17
2022-08-20T13:01:23.293Z,100189.91
2022-08-20T13:06:26.162Z,100184.89
2022-08-20T13:11:31.350Z,100176.20
2022-08-20T13:16:34.248Z,100174.72
2022-08-20T13:21:37.062Z,100166.19
2022-08-20T13:26:39.791Z,100159.41
2022-08-20T13:31:42.663Z,100157.52
2022-08-20T13:36:45.465Z,100154.58
2022-08-20T13:41:48.308Z,100151.96
2022-08-20T13:46:51.089Z,100151.61
2022-08-20T13:51:55.433Z,100151.11
2022-08-20T13:57:12.546Z,100154.73
2022-08-20T14:02:16.445Z,100148.48
2022-08-20T14:07:32.295Z,100154.93
2022-08-20T14:12:36.802Z,100157.75
2022-08-20T14:17:52.508Z,100159.70
2022-08-20T14:22:55.430Z,100170.20
2022-08-20T14:27:58.638Z,100170.44
2022-08-20T14:33:01.332Z,100169.27
2022-08-20T14:38:05.213Z,100175.75
2022-08-20T14:43:08.420Z,100178.02
2022-08-20T14:48:11.264Z,100174.85
2022-08-20T14:53:15.625Z,100173.76
2022-08-20T14:58:18.505Z,100179.68
2022-08-20T15:03:24.057Z,100172.02
2022-08-20T15:08:28.340Z,100170.73
2022-08-20T15:13:31.803Z,100172.90
2022-08-20T15:18:35.462Z,100184.52
2022-08-20T15:23:38.197Z,100188.79
2022-08-20T15:28:41.085Z,100182.09
2022-08-20T15:33:43.861Z,100183.01
2022-08-20T15:38:46.639Z,100185.55
2022-08-20T15:43:49.420Z,100181.59
2022-08-20T15:48:52.183Z,100183.98
2022-08-20T15:54:24.096Z,100181.96
2022-08-20T15:59:54.874Z,100182.55
2022-08-20T16:05:27.337Z,100183.97
2022-08-20T16:10:43.378Z,100184.46
2022-08-20T16:15:49.422Z,100178.11
2022-08-20T16:20:53.880Z,100171.61
2022-08-20T16:26:23.518Z,100170.17
2022-08-20T16:31:48.517Z,100173.55
2022-08-20T16:37:21.868Z,100165.45
2022-08-20T16:42:24.877Z,100168.12
2022-08-20T16:47:30.775Z,100172.16
2022-08-20T16:52:33.696Z,100173.05
2022-08-20T16:57:36.530Z,100175.91
2022-08-20T17:02:58.518Z,100174.77
2022-08-20T17:08:03.689Z,100177.77
2022-08-20T17:13:30.083Z,100177.42
2022-08-20T17:18:37.095Z,100173.46
2022-08-20T17:23:55.557Z,100177.40
2022-08-20T17:29:19.180Z,100175.42
2022-08-20T17:34:28.052Z,100179.17
2022-08-20T17:39:32.050Z,100192.87
2022-08-20T17:44:39.880Z,100204.81
2022-08-20T17:50:02.690Z,100208.63
2022-08-20T17:55:06.542Z,100207.00
2022-08-20T18:00:15.007Z,100203.83
2022-08-20T18:05:21.536Z,100205.98
2022-08-20T18:10:26.279Z,100212.48
2022-08-20T18:15:35.985Z,100207.30
2022-08-20T18:21:21.366Z,100205.20
2022-08-20T18:26:32.338Z,100203.48
2022-08-20T18:31:54.669Z,100202.77
2022-08-20T18:37:03.313Z,100208.35
2022-08-20T18:42:45.745Z,100208.65
2022-08-20T18:47:48.563Z,100211.52
2022-08-20T18:53:07.178Z,100215.56
2022-08-20T18:58:32.956Z,100217.95
2022-08-20T19:03:36.004Z,100222.29
2022-08-20T19:09:18.668Z,100225.09
2022-08-20T19:14:40.074Z,100230.79
2022-08-20T19:19:43.055Z,100234.59
2022-08-20T19:24:46.421Z,100239.79
2022-08-20T19:29:49.811Z,100239.72
2022-08-20T19:35:06.023Z,100236.44
2022-08-20T19:40:40.090Z,100230.34
2022-08-20T19:45:52.498Z,100223.36
2022-08-20T19:51:19.608Z,100219.26
2022-08-20T19:56:25.510Z,100214.95
2022-08-20T20:01:28.510Z,100214.30
2022-08-20T20:06:36.239Z,100214.30
2022-08-20T20:12:22.726Z,100213.20
2022-08-20T20:17:31.664Z,100208.38
2022-08-20T20:22:48.727Z,100199.76
2022-08-20T20:27:54.989Z,100202.93
2022-08-20T20:32:59.997Z,100197.86
2022-08-20T20:38:06.732Z,100199.45
2022-08-20T20:43:12.348Z,100207.73
2022-08-20T20:48:22.449Z,100213.95
2022-08-20T20:53:52.995Z,100208.85
2022-08-20T20:58:56.055Z,100203.64
2022-08-20T21:03:59.303Z,100205.19
2022-08-20T21:09:02.309Z,100204.27
2022-08-20T21:14:05.304Z,100201.17
2022-08-20T21:19:08.791Z,100204.81
2022-08-20T21:24:11.675Z,100209.03
2022-08-20T21:29:31.717Z,100208.14
2022-08-20T21:34:35.287Z,100199.06
2022-08-20T21:39:38.156Z,100200.91
2022-08-20T21:44:41.388Z,100206.38
2022-08-20T21:49:52.632Z,100203.02
2022-08-20T21:54:55.414Z,100196.30
2022-08-20T21:59:58.456Z,100193.76
2022-08-20T22:05:01.271Z,100197.27
2022-08-20T22:10:05.712Z,100208.55
2022-08-20T22:15:09.562Z,100218.65
2022-08-20T22:20:12.974Z,100220.74
2022-08-20T22:25:15.781Z,100229.04
2022-08-20T22:30:18.690Z,100227.02
2022-08-20T22:35:21.535Z,100233.66
2022-08-20T22:40:24.557Z,100229.89
2022-08-20T22:45:27.445Z,100238.80
2022-08-20T22:50:30.339Z,100244.58
2022-08-20T22:55:35.050Z,100245.56
2022-08-20T23:00:38.969Z,100249.58
2022-08-20T23:05:42.380Z,100251.74
2022-08-20T23:10:45.294Z,100251.65
2022-08-20T23:15:48.121Z,100260.34
2022-08-20T23:20:56.448Z,100267.83
2022-08-20T23:25:59.309Z,100269.84
2022-08-20T23:31:02.221Z,100269.84
2022-08-20T23:36:05.498Z,100274.27
2022-08-20T23:41:08.300Z,100274.67
2022-08-20T23:46:11.191Z,100269.96
2022-08-20T23:51:13.961Z,100275.36
2022-08-20T23:56:17.400Z,100280.27
